Time;durP1;ratioP1;P1;durP2;ratioP2;P2;SDS_P1;SDS_P2;PMS_P1;PMS_P2;Temp;Humidity;BMP_temperature;BMP_pressure;BME280_temperature;BME280_humidity;BME280_pressure;Samples;Min_cycle;Max_cycle;Signal;HPM_P1;HPM_P2
2023/03/13 00:02:21;;;;;;;2.00;1.20;;;18.60;57.80;;;;;;4997691;28;20477;-91
2023/03/13 00:04:49;;;;;;;1.90;1.30;;;18.70;57.80;;;;;;5000063;28;20999;-91
2023/03/13 00:07:16;;;;;;;3.23;1.60;;;18.60;57.70;;;;;;4998926;28;20586;-91
2023/03/13 00:09:43;;;;;;;3.57;1.80;;;18.70;57.70;;;;;;4998442;28;20528;-91
2023/03/13 00:12:10;;;;;;;1.60;1.40;;;18.70;57.80;;;;;;4997821;28;20440;-91
2023/03/13 00:14:37;;;;;;;3.17;1.53;;;18.80;57.90;;;;;;4997810;28;20455;-92
2023/03/13 00:17:04;;;;;;;2.57;1.40;;;18.70;57.80;;;;;;4997915;28;20781;-92
2023/03/13 00:19:30;;;;;;;2.43;1.40;;;18.70;58.30;;;;;;4997958;28;20446;-91
2023/03/13 00:21:59;;;;;;;1.80;1.60;;;18.70;57.70;;;;;;4997822;28;20481;-91
2023/03/13 00:24:25;;;;;;;3.00;1.30;;;18.60;57.70;;;;;;4998316;28;20490;-92
2023/03/13 00:26:52;;;;;;;1.77;1.20;;;18.70;57.80;;;;;;4998174;28;20494;-91
2023/03/13 00:29:21;;;;;;;1.53;1.20;;;18.60;57.70;;;;;;4997713;28;20452;-91
2023/03/13 00:31:48;;;;;;;1.77;1.20;;;18.60;57.70;;;;;;4997531;28;20475;-91
2023/03/13 00:34:15;;;;;;;1.57;1.20;;;18.70;57.80;;;;;;4997401;28;20523;-94
2023/03/13 00:36:42;;;;;;;3.17;1.53;;;18.60;57.70;;;;;;4996864;28;20450;-94
2023/03/13 00:39:10;;;;;;;2.53;1.50;;;18.60;57.70;;;;;;4996864;28;20791;-92
2023/03/13 00:41:37;;;;;;;1.97;1.10;;;18.70;57.80;;;;;;4997302;28;20444;-95
2023/03/13 00:44:05;;;;;;;3.63;1.30;;;18.70;57.70;;;;;;4996718;28;20487;-91
2023/03/13 00:46:32;;;;;;;2.47;1.10;;;18.60;57.70;;;;;;5008311;28;20514;-91
2023/03/13 00:48:58;;;;;;;1.83;1.20;;;18.80;57.80;;;;;;5012347;28;20450;-91
2023/03/13 00:51:26;;;;;;;2.10;1.20;;;18.60;57.70;;;;;;4996920;28;20781;-92
2023/03/13 00:53:53;;;;;;;2.10;1.40;;;18.60;58.20;;;;;;4996907;28;20458;-92
2023/03/13 00:56:22;;;;;;;2.17;1.20;;;18.60;57.60;;;;;;4996946;28;20475;-91
2023/03/13 00:58:50;;;;;;;1.70;1.60;;;18.60;57.70;;;;;;4996481;28;20437;-91
2023/03/13 01:01:18;;;;;;;2.43;1.30;;;18.80;57.90;;;;;;4996633;28;20471;-94
2023/03/13 01:03:47;;;;;;;1.60;1.17;;;18.70;57.80;;;;;;4996647;28;20453;-94
2023/03/13 01:06:16;;;;;;;2.83;1.30;;;18.80;57.80;;;;;;4996394;28;20458;-92
2023/03/13 01:08:43;;;;;;;1.90;1.27;;;18.60;57.70;;;;;;4996133;28;20492;-95
2023/03/13 01:11:12;;;;;;;2.00;1.47;;;18.60;57.70;;;;;;4996415;28;20954;-92
2023/03/13 01:13:41;;;;;;;2.17;1.20;;;18.60;57.70;;;;;;4996008;28;20454;-93
2023/03/13 01:16:10;;;;;;;1.63;1.17;;;18.60;57.70;;;;;;4996547;28;20454;-92
2023/03/13 01:18:38;;;;;;;3.63;1.50;;;18.60;57.70;;;;;;4996067;28;20448;-94
2023/03/13 01:21:06;;;;;;;2.00;1.20;;;18.80;57.80;;;;;;4996389;28;20453;-92
2023/03/13 01:23:33;;;;;;;5.13;2.40;;;18.60;57.70;;;;;;4996246;28;20451;-92
2023/03/13 01:26:00;;;;;;;2.20;1.20;;;18.60;57.70;;;;;;4996222;28;20445;-91
2023/03/13 01:28:27;;;;;;;1.60;1.20;;;18.60;57.70;;;;;;4995969;28;20480;-91
2023/03/13 01:30:55;;;;;;;1.53;1.20;;;18.60;57.70;;;;;;4995846;28;20464;-91
2023/03/13 01:33:22;;;;;;;2.47;1.43;;;18.60;57.70;;;;;;4995854;28;20441;-91
2023/03/13 01:35:49;;;;;;;2.50;1.50;;;18.60;57.70;;;;;;4995853;28;20977;-91
2023/03/13 01:38:16;;;;;;;1.70;1.07;;;18.70;57.70;;;;;;4996079;28;20444;-91
2023/03/13 01:40:45;;;;;;;2.40;1.30;;;18.80;57.90;;;;;;5001691;28;20448;-91
2023/03/13 01:43:21;;;;;;;2.43;1.23;;;18.60;57.70;;;;;;5015456;28;20447;-92
2023/03/13 01:45:59;;;;;;;2.57;1.20;;;18.60;57.70;;;;;;5016353;28;20917;-92
2023/03/13 01:48:41;;;;;;;2.43;1.83;;;18.80;57.90;;;;;;5015335;28;20505;-94
2023/03/13 01:51:11;;;;;;;3.20;1.43;;;18.60;57.70;;;;;;5015145;28;20438;-92
2023/03/13 01:53:42;;;;;;;2.03;1.20;;;18.70;57.80;;;;;;5015283;28;20452;-94
2023/03/13 01:56:13;;;;;;;3.20;1.37;;;18.70;57.70;;;;;;5015524;28;20794;-91
2023/03/13 01:58:40;;;;;;;2.57;1.70;;;18.70;57.80;;;;;;5015274;28;20496;-94
2023/03/13 02:01:09;;;;;;;2.67;1.30;;;18.60;57.70;;;;;;5014871;28;20471;-91
2023/03/13 02:03:37;;;;;;;1.30;0.93;;;18.60;57.70;;;;;;5015452;28;20447;-91
2023/03/13 02:06:06;;;;;;;2.33;1.43;;;18.60;57.70;;;;;;5015108;28;20463;-92
2023/03/13 02:08:37;;;;;;;7.87;1.53;;;18.60;57.70;;;;;;5014574;28;20492;-92
2023/03/13 02:11:13;;;;;;;2.40;1.27;;;18.60;57.70;;;;;;5015122;28;20436;-94
2023/03/13 02:13:40;;;;;;;2.40;1.60;;;18.70;57.70;;;;;;5014774;28;20487;-92
2023/03/13 02:16:09;;;;;;;2.13;1.27;;;18.60;57.70;;;;;;5014672;28;20454;-93
2023/03/13 02:18:37;;;;;;;2.17;1.20;;;18.70;58.30;;;;;;5014613;28;20448;-92
2023/03/13 02:21:11;;;;;;;1.40;1.20;;;18.60;57.60;;;;;;5014911;28;20450;-91
2023/03/13 02:23:46;;;;;;;2.37;1.30;;;18.60;57.70;;;;;;5014552;28;20438;-91
2023/03/13 02:26:15;;;;;;;1.97;1.10;;;18.60;57.70;;;;;;5015250;28;20430;-91
2023/03/13 02:28:42;;;;;;;1.73;1.10;;;18.60;57.70;;;;;;5014323;28;20485;-92
2023/03/13 02:31:10;;;;;;;1.90;1.23;;;18.60;57.70;;;;;;5014350;28;20463;-92
2023/03/13 02:33:39;;;;;;;1.77;0.90;;;18.60;57.70;;;;;;5014528;28;20440;-94
2023/03/13 02:36:07;;;;;;;1.67;1.30;;;18.50;57.60;;;;;;5014396;28;20535;-91
2023/03/13 02:38:39;;;;;;;1.40;0.93;;;18.60;57.70;;;;;;5006939;28;20454;-92
2023/03/13 02:41:06;;;;;;;1.87;1.73;;;18.60;57.70;;;;;;4994813;28;20442;-91
2023/03/13 02:43:37;;;;;;;1.60;1.10;;;18.70;57.80;;;;;;4994896;28;20452;-92
2023/03/13 02:46:07;;;;;;;1.60;1.10;;;18.70;57.80;;;;;;4995771;28;20445;-92
2023/03/13 02:48:36;;;;;;;2.40;1.50;;;18.50;57.60;;;;;;4994733;28;20488;-94
2023/03/13 02:51:06;;;;;;;2.50;1.10;;;18.60;57.70;;;;;;4994551;28;20820;-91
2023/03/13 02:53:34;;;;;;;2.97;1.50;;;18.60;58.30;;;;;;4994645;28;20448;-92
2023/03/13 02:56:02;;;;;;;1.97;1.30;;;18.50;57.60;;;;;;4994695;28;20451;-91
2023/03/13 02:58:39;;;;;;;1.83;0.97;;;18.50;57.60;;;;;;4994630;28;20444;-94
2023/03/13 03:01:06;;;;;;;2.20;1.30;;;18.70;57.80;;;;;;4994451;28;20475;-92
2023/03/13 03:03:34;;;;;;;1.60;1.13;;;18.50;57.60;;;;;;4994594;28;20453;-92
2023/03/13 03:06:01;;;;;;;2.30;1.03;;;18.50;57.70;;;;;;4994492;28;20450;-92
2023/03/13 03:08:28;;;;;;;2.03;1.30;;;18.60;57.60;;;;;;4994009;28;20845;-91
2023/03/13 03:10:55;;;;;;;1.73;1.40;;;18.70;57.70;;;;;;4994209;28;20451;-91
2023/03/13 03:13:22;;;;;;;1.80;0.97;;;18.70;57.70;;;;;;4994345;28;20460;-91
2023/03/13 03:15:50;;;;;;;1.60;1.00;;;18.60;57.60;;;;;;4994423;28;20471;-92
2023/03/13 03:18:17;;;;;;;3.53;1.13;;;18.70;57.80;;;;;;4994123;28;20445;-93
2023/03/13 03:20:44;;;;;;;2.00;1.00;;;18.50;57.70;;;;;;4994058;28;20499;-91
2023/03/13 03:23:11;;;;;;;1.67;1.33;;;18.70;57.80;;;;;;4994064;28;20540;-92
2023/03/13 03:25:38;;;;;;;2.40;1.33;;;18.50;57.60;;;;;;4994364;28;20439;-92
2023/03/13 03:28:05;;;;;;;1.50;1.03;;;18.50;57.60;;;;;;4993909;28;20564;-92
2023/03/13 03:30:32;;;;;;;2.53;1.10;;;18.50;57.70;;;;;;4994215;28;20468;-91
2023/03/13 03:33:02;;;;;;;1.40;0.90;;;18.70;57.80;;;;;;4993892;28;20456;-92
2023/03/13 03:35:29;;;;;;;2.13;0.90;;;18.50;57.60;;;;;;4994882;28;20470;-92
2023/03/13 03:37:55;;;;;;;1.60;0.97;;;18.50;57.60;;;;;;5005371;28;20443;-93
2023/03/13 03:40:22;;;;;;;2.40;1.93;;;18.50;57.70;;;;;;5017526;28;20452;-91
2023/03/13 03:42:49;;;;;;;1.83;1.00;;;18.70;57.70;;;;;;5018164;28;20447;-91
2023/03/13 03:45:16;;;;;;;3.60;1.63;;;18.60;57.70;;;;;;5017816;28;20447;-92
2023/03/13 03:47:43;;;;;;;2.07;1.20;;;18.50;57.60;;;;;;5018138;28;20443;-92
2023/03/13 03:50:11;;;;;;;2.00;1.20;;;18.50;57.60;;;;;;5017715;28;20454;-91
2023/03/13 03:52:38;;;;;;;1.67;0.97;;;18.50;57.60;;;;;;5017661;28;20450;-92
2023/03/13 03:55:06;;;;;;;1.60;1.13;;;18.50;57.60;;;;;;5017721;28;20439;-93
2023/03/13 03:57:33;;;;;;;1.30;1.00;;;18.50;57.70;;;;;;5017309;28;20445;-91
2023/03/13 04:00:00;;;;;;;1.40;1.10;;;18.50;57.60;;;;;;5017370;28;20521;-91
2023/03/13 04:02:26;;;;;;;1.83;1.13;;;18.50;57.70;;;;;;5017438;28;20451;-91
2023/03/13 04:04:53;;;;;;;1.70;1.20;;;18.50;57.70;;;;;;5017403;28;20441;-92
2023/03/13 04:07:22;;;;;;;2.10;1.10;;;18.70;57.90;;;;;;5016973;28;20487;-92
2023/03/13 04:09:48;;;;;;;2.77;1.13;;;18.50;57.70;;;;;;5017124;28;20843;-91
2023/03/13 04:12:15;;;;;;;1.77;1.03;;;18.50;57.60;;;;;;5017961;28;20458;-92
2023/03/13 04:14:42;;;;;;;2.13;1.00;;;18.50;57.60;;;;;;5017073;28;20451;-91
2023/03/13 04:17:09;;;;;;;1.30;0.97;;;18.50;57.60;;;;;;5016972;28;20497;-90
2023/03/13 04:19:36;;;;;;;1.70;1.30;;;18.70;57.80;;;;;;5016836;28;20521;-91
2023/03/13 04:22:02;;;;;;;2.10;1.60;;;18.50;57.70;;;;;;5017396;28;20790;-90
2023/03/13 04:24:31;;;;;;;1.23;0.90;;;18.50;57.70;;;;;;5017242;28;20450;-90
2023/03/13 04:26:58;;;;;;;1.77;1.10;;;18.50;57.80;;;;;;5016642;28;20451;-91
2023/03/13 04:29:25;;;;;;;1.43;0.90;;;18.50;57.70;;;;;;5016848;28;20503;-90
2023/03/13 04:31:51;;;;;;;1.90;1.27;;;18.50;57.70;;;;;;5017053;28;20453;-91
2023/03/13 04:34:18;;;;;;;1.97;1.00;;;18.50;57.70;;;;;;5016881;28;20529;-91
2023/03/13 04:36:45;;;;;;;1.43;1.00;;;18.50;57.60;;;;;;5016862;28;20954;-90
2023/03/13 04:39:12;;;;;;;2.27;1.20;;;18.50;57.70;;;;;;5016529;28;20458;-91
2023/03/13 04:41:40;;;;;;;1.50;1.20;;;18.50;57.70;;;;;;5016914;28;20449;-89
2023/03/13 04:44:07;;;;;;;1.50;0.90;;;18.50;57.70;;;;;;5016312;28;20475;-92
2023/03/13 04:46:34;;;;;;;1.33;1.10;;;18.50;57.80;;;;;;5016695;28;20449;-90
2023/03/13 04:49:01;;;;;;;1.93;1.17;;;18.50;57.70;;;;;;5016063;28;20513;-91
2023/03/13 04:51:27;;;;;;;1.53;1.00;;;18.50;57.70;;;;;;5016440;28;20459;-90
2023/03/13 04:53:54;;;;;;;2.07;1.27;;;18.50;57.80;;;;;;5016539;28;20811;-91
2023/03/13 04:56:24;;;;;;;1.20;0.90;;;18.50;57.70;;;;;;5016481;28;20550;-90
2023/03/13 04:59:01;;;;;;;2.27;1.17;;;18.50;57.70;;;;;;5016822;28;20443;-90
2023/03/13 05:01:28;;;;;;;2.80;0.97;;;18.50;57.80;;;;;;5016004;28;20453;-90
2023/03/13 05:03:55;;;;;;;1.50;1.03;;;18.70;57.90;;;;;;5016096;28;20447;-90
2023/03/13 05:06:22;;;;;;;1.57;1.07;;;18.50;57.80;;;;;;5015913;28;20445;-90
2023/03/13 05:08:48;;;;;;;2.20;1.10;;;18.50;57.80;;;;;;4999706;28;20492;-90
2023/03/13 05:11:15;;;;;;;1.40;1.00;;;18.60;57.80;;;;;;4996569;28;20936;-91
2023/03/13 05:13:42;;;;;;;1.93;1.00;;;18.50;57.70;;;;;;4996572;28;20450;-91
2023/03/13 05:16:10;;;;;;;4.10;1.03;;;18.50;57.80;;;;;;4996172;28;20471;-90
2023/03/13 05:18:38;;;;;;;1.37;0.90;;;18.50;57.90;;;;;;4996302;28;20480;-93
2023/03/13 05:21:05;;;;;;;1.50;1.00;;;18.70;57.90;;;;;;4996581;28;20490;-90
2023/03/13 05:23:32;;;;;;;1.20;1.00;;;18.50;57.80;;;;;;4996453;28;20939;-91
2023/03/13 05:25:59;;;;;;;1.27;0.90;;;18.60;57.90;;;;;;4996114;28;20534;-90
2023/03/13 05:28:26;;;;;;;1.30;0.90;;;18.50;57.80;;;;;;4996302;28;20506;-91
2023/03/13 05:30:53;;;;;;;1.73;1.07;;;18.50;57.80;;;;;;4995908;28;20474;-90
2023/03/13 05:33:21;;;;;;;2.80;1.10;;;18.50;57.80;;;;;;4996307;28;20804;-91
2023/03/13 05:35:49;;;;;;;1.67;1.07;;;18.70;58.00;;;;;;4996089;28;20452;-90
2023/03/13 05:38:15;;;;;;;2.23;1.50;;;18.50;57.90;;;;;;4996257;28;20446;-91
2023/03/13 05:40:42;;;;;;;1.30;0.90;;;18.60;58.60;;;;;;4996087;28;20475;-91
2023/03/13 05:43:09;;;;;;;1.10;0.63;;;18.50;57.90;;;;;;4996080;28;20456;-91
2023/03/13 05:45:36;;;;;;;1.10;0.80;;;18.50;57.90;;;;;;4996264;28;20444;-91
2023/03/13 05:48:03;;;;;;;1.10;0.80;;;18.50;57.90;;;;;;4995730;28;20943;-91
2023/03/13 05:50:31;;;;;;;1.70;1.20;;;18.50;57.90;;;;;;4996019;28;20941;-93
2023/03/13 05:52:58;;;;;;;1.20;0.80;;;18.50;57.90;;;;;;4995987;28;20527;-91
2023/03/13 05:55:25;;;;;;;1.50;1.17;;;18.70;58.00;;;;;;4996842;28;20453;-91
2023/03/13 05:57:51;;;;;;;1.30;0.80;;;18.60;57.90;;;;;;4995843;28;20451;-91
2023/03/13 06:00:19;;;;;;;1.40;0.90;;;18.70;58.10;;;;;;4994713;28;20462;-90
2023/03/13 06:02:46;;;;;;;1.37;1.00;;;18.50;57.90;;;;;;4995736;28;20936;-91
2023/03/13 06:05:13;;;;;;;1.40;0.80;;;18.50;57.80;;;;;;5012526;28;20449;-90
2023/03/13 06:07:41;;;;;;;1.70;1.00;;;18.50;57.90;;;;;;5014893;28;20560;-91
2023/03/13 06:10:09;;;;;;;1.30;0.90;;;18.50;57.90;;;;;;5014704;28;20524;-91
2023/03/13 06:12:36;;;;;;;1.40;0.87;;;18.50;57.90;;;;;;5015045;28;20927;-91
2023/03/13 06:15:03;;;;;;;1.60;0.80;;;18.50;57.90;;;;;;5014996;28;20449;-91
2023/03/13 06:17:30;;;;;;;1.10;0.80;;;18.50;57.90;;;;;;5014963;28;20436;-90
2023/03/13 06:19:57;;;;;;;1.07;0.90;;;18.50;57.90;;;;;;4997282;28;20442;-90
2023/03/13 06:22:24;;;;;;;1.93;1.00;;;18.50;57.90;;;;;;5014799;28;20479;-91
2023/03/13 06:24:52;;;;;;;1.20;0.80;;;18.50;57.90;;;;;;5014667;28;20449;-90
2023/03/13 06:27:19;;;;;;;1.30;0.80;;;18.50;57.90;;;;;;4994848;28;20448;-91
2023/03/13 06:29:46;;;;;;;1.20;0.70;;;18.50;57.90;;;;;;4995150;28;20844;-91
2023/03/13 06:32:12;;;;;;;1.30;1.00;;;18.60;58.00;;;;;;4994768;28;20442;-90
2023/03/13 06:34:39;;;;;;;1.30;0.83;;;18.50;57.90;;;;;;4994993;28;20459;-90
2023/03/13 06:37:06;;;;;;;2.00;0.90;;;18.60;58.00;;;;;;4994660;28;20504;-91
2023/03/13 06:39:33;;;;;;;1.30;0.70;;;18.50;57.90;;;;;;4995250;28;20448;-91
2023/03/13 06:42:01;;;;;;;2.33;1.00;;;18.50;58.50;;;;;;4995509;28;20481;-91
2023/03/13 06:44:28;;;;;;;1.50;1.00;;;18.50;58.50;;;;;;4995010;28;20969;-91
2023/03/13 06:46:55;;;;;;;1.20;0.87;;;18.50;57.90;;;;;;4996158;28;20455;-91
2023/03/13 06:49:22;;;;;;;1.43;0.90;;;18.50;57.90;;;;;;4995705;28;20478;-93
2023/03/13 06:51:49;;;;;;;1.20;0.87;;;18.50;57.90;;;;;;4995379;28;20536;-93
2023/03/13 06:54:16;;;;;;;1.30;0.80;;;18.50;57.90;;;;;;4995072;28;20452;-92
2023/03/13 06:56:43;;;;;;;1.00;0.70;;;18.50;57.90;;;;;;4995069;28;20451;-91
2023/03/13 06:59:11;;;;;;;1.07;0.80;;;18.50;58.00;;;;;;4977731;28;20523;-91
2023/03/13 07:01:37;;;;;;;1.00;0.70;;;18.60;58.10;;;;;;4995050;28;21021;-92
2023/03/13 07:04:04;;;;;;;1.20;0.80;;;18.50;58.00;;;;;;4995946;28;20462;-95
2023/03/13 07:06:31;;;;;;;1.10;0.80;;;18.60;58.10;;;;;;4994746;28;20531;-95
2023/03/13 07:08:58;;;;;;;1.40;1.00;;;18.50;57.90;;;;;;4995350;28;20490;-92
2023/03/13 07:11:25;;;;;;;1.00;0.77;;;18.60;58.00;;;;;;4995883;28;20475;-92
2023/03/13 07:13:55;;;;;;;1.20;0.80;;;18.60;57.90;;;;;;4995999;28;20456;-91
2023/03/13 07:16:23;;;;;;;1.50;1.10;;;18.50;57.80;;;;;;4995340;28;20451;-92
2023/03/13 07:18:51;;;;;;;5.27;1.30;;;18.50;57.80;;;;;;4996018;28;20542;-93
2023/03/13 07:21:17;;;;;;;2.90;1.10;;;18.50;58.10;;;;;;5004168;28;20431;-94
2023/03/13 07:23:44;;;;;;;3.77;1.00;;;18.50;58.00;;;;;;5002082;28;20533;-89
2023/03/13 07:26:16;;;;;;;2.87;0.97;;;18.50;58.00;;;;;;4998683;28;20451;-94
2023/03/13 20:49:25;;;;;;;8.23;6.30;;;20.80;66.20;;;;;;5247096;23;20512;-96
2023/03/13 20:51:55;;;;;;;9.23;7.23;;;20.70;65.60;;;;;;5041717;28;20541;-90
2023/03/13 20:54:22;;;;;;;8.17;6.40;;;20.80;65.60;;;;;;5041004;28;20436;-90
2023/03/13 20:56:49;;;;;;;6.53;5.60;;;20.90;65.70;;;;;;5041169;28;20549;-89
2023/03/13 20:59:16;;;;;;;7.53;6.07;;;20.80;65.70;;;;;;5027367;28;20958;-86
2023/03/13 21:01:43;;;;;;;9.43;7.60;;;20.80;66.30;;;;;;5024767;28;20475;-89
2023/03/13 21:04:09;;;;;;;7.73;6.37;;;20.80;66.30;;;;;;5022771;28;20445;-94
2023/03/13 21:06:39;;;;;;;7.23;6.10;;;20.80;66.00;;;;;;5022776;28;20474;-87
2023/03/13 21:09:05;;;;;;;6.57;5.90;;;20.90;66.00;;;;;;5021291;28;20441;-85
2023/03/13 21:11:33;;;;;;;6.80;5.47;;;21.10;66.10;;;;;;5022574;28;21084;-88
2023/03/13 21:13:59;;;;;;;6.77;6.10;;;21.10;66.10;;;;;;5021418;28;20443;-87
2023/03/13 21:16:26;;;;;;;9.47;5.43;;;20.90;65.90;;;;;;5040190;23;20576;-88
2023/03/13 21:18:53;;;;;;;6.27;5.67;;;20.90;66.10;;;;;;5042338;28;20445;-86
2023/03/13 21:21:21;;;;;;;8.13;6.27;;;20.90;66.30;;;;;;5043454;28;20442;-85
2023/03/13 21:23:52;;;;;;;6.27;5.63;;;21.00;65.90;;;;;;5043094;28;20434;-86
2023/03/13 21:26:19;;;;;;;6.43;5.30;;;21.10;65.80;;;;;;5041772;28;20824;-86
2023/03/13 21:28:46;;;;;;;6.27;5.67;;;20.90;65.70;;;;;;5062721;23;20485;-88
2023/03/13 21:31:24;;;;;;;6.47;5.67;;;20.90;65.70;;;;;;5062449;28;20497;-88
2023/03/13 21:33:51;;;;;;;5.20;4.70;;;20.90;65.70;;;;;;5065894;28;20537;-95
2023/03/13 21:36:20;;;;;;;5.20;4.80;;;20.90;65.60;;;;;;5061271;28;20545;-88
2023/03/13 21:38:47;;;;;;;5.23;4.67;;;21.00;65.70;;;;;;5063655;28;20449;-87
2023/03/13 21:41:18;;;;;;;5.40;4.90;;;20.90;65.60;;;;;;5065738;28;21044;-88
2023/03/13 21:43:46;;;;;;;9.53;4.90;;;20.90;65.60;;;;;;5079047;28;20517;-90
2023/03/13 21:46:15;;;;;;;5.90;5.30;;;20.90;65.60;;;;;;5077654;28;21025;-88
2023/03/13 21:48:43;;;;;;;5.57;4.10;;;20.90;65.50;;;;;;5063852;28;20456;-88
2023/03/13 21:51:11;;;;;;;5.60;4.50;;;21.00;65.50;;;;;;5064520;28;20578;-88
2023/03/13 21:53:39;;;;;;;5.80;5.13;;;20.90;65.50;;;;;;5062278;28;20456;-88
2023/03/13 21:56:07;;;;;;;4.50;4.10;;;20.90;65.40;;;;;;5068430;28;20467;-96
2023/03/13 21:58:35;;;;;;;4.73;4.00;;;20.90;65.50;;;;;;5068859;28;20481;-91
2023/03/13 22:01:06;;;;;;;5.60;5.10;;;20.90;65.40;;;;;;5066674;28;20480;-88
2023/03/13 22:03:33;;;;;;;4.50;4.10;;;20.90;65.40;;;;;;5066185;28;20434;-96
2023/03/13 22:05:59;;;;;;;5.10;3.97;;;20.90;65.40;;;;;;5066006;28;20441;-88
2023/03/13 22:08:26;;;;;;;4.97;4.10;;;20.90;65.30;;;;;;5067029;28;20431;-88
2023/03/13 22:10:53;;;;;;;4.07;3.70;;;20.90;66.10;;;;;;5069375;28;20468;-88
2023/03/13 22:13:21;;;;;;;4.17;3.83;;;20.90;65.20;;;;;;5070294;28;20451;-88
2023/03/13 22:15:51;;;;;;;4.30;3.90;;;20.90;65.30;;;;;;5070274;28;20426;-85
2023/03/13 22:18:18;;;;;;;5.03;3.63;;;20.90;65.30;;;;;;5068634;28;20456;-87
2023/03/13 22:20:58;;;;;;;3.93;3.63;;;20.90;65.30;;;;;;5048118;23;20546;-87
2023/03/13 22:23:24;;;;;;;3.97;3.57;;;20.90;65.20;;;;;;5034284;23;20961;-87
2023/03/13 22:25:55;;;;;;;7.47;4.00;;;20.90;65.20;;;;;;5034641;23;20471;-89
2023/03/13 22:28:23;;;;;;;3.80;3.10;;;20.90;65.20;;;;;;5035710;23;20487;-93
2023/03/13 22:30:51;;;;;;;4.30;3.83;;;20.90;65.20;;;;;;5034665;23;20530;-88
2023/03/13 22:33:18;;;;;;;4.70;3.70;;;20.90;65.20;;;;;;5024755;28;20927;-88
2023/03/13 22:35:50;;;;;;;3.40;3.10;;;20.90;65.20;;;;;;5019850;28;20455;-88
2023/03/13 22:38:18;;;;;;;3.47;3.20;;;20.80;65.10;;;;;;5017894;28;20451;-89
2023/03/13 22:40:44;;;;;;;3.70;3.30;;;20.80;65.10;;;;;;5017540;28;20891;-92
2023/03/13 22:43:11;;;;;;;5.00;4.00;;;20.80;65.00;;;;;;5016022;28;20447;-88
2023/03/13 22:45:38;;;;;;;3.27;2.97;;;20.80;65.00;;;;;;5017995;28;20451;-96
2023/03/13 22:48:06;;;;;;;4.33;3.23;;;20.80;64.90;;;;;;5017122;28;20454;-89
2023/03/13 22:50:34;;;;;;;3.73;3.40;;;20.80;64.80;;;;;;5017669;28;20478;-89
2023/03/13 22:53:01;;;;;;;3.93;3.30;;;20.90;65.00;;;;;;5017524;28;20443;-95
2023/03/13 22:55:27;;;;;;;2.90;2.70;;;20.80;64.80;;;;;;5016981;28;20443;-88
2023/03/13 22:57:54;;;;;;;3.67;3.03;;;20.80;64.80;;;;;;5024063;28;20466;-93
2023/03/13 23:00:21;;;;;;;3.67;3.20;;;20.80;64.80;;;;;;5036972;28;20448;-96
2023/03/13 23:02:48;;;;;;;2.83;2.60;;;20.90;64.90;;;;;;5037306;28;20439;-88
2023/03/13 23:05:16;;;;;;;3.60;3.30;;;20.80;64.70;;;;;;5036845;28;20517;-89
2023/03/13 23:07:43;;;;;;;3.00;2.80;;;20.80;64.70;;;;;;5036849;28;20439;-88
2023/03/13 23:10:11;;;;;;;3.40;3.10;;;20.80;64.70;;;;;;5035651;28;20510;-95
2023/03/13 23:12:38;;;;;;;3.50;2.63;;;20.80;64.70;;;;;;5035837;28;20446;-95
2023/03/13 23:15:06;;;;;;;2.37;2.17;;;20.80;64.70;;;;;;5036216;28;20439;-89
2023/03/13 23:17:35;;;;;;;2.67;2.40;;;20.80;64.50;;;;;;5036314;28;20446;-93
2023/03/13 23:20:07;;;;;;;2.73;2.47;;;20.80;64.70;;;;;;5036539;28;20469;-93
2023/03/13 23:22:35;;;;;;;3.30;3.00;;;20.80;64.50;;;;;;5035422;28;20677;-89
2023/03/13 23:25:03;;;;;;;4.10;2.70;;;20.80;64.60;;;;;;5036657;28;20442;-89
2023/03/13 23:27:30;;;;;;;4.03;2.67;;;20.80;64.50;;;;;;5036216;28;20501;-90
2023/03/13 23:30:00;;;;;;;3.00;2.70;;;20.80;64.50;;;;;;5036162;28;20446;-95
2023/03/13 23:32:27;;;;;;;4.17;3.00;;;20.80;64.40;;;;;;5036266;28;20501;-96
2023/03/13 23:34:54;;;;;;;2.90;2.47;;;20.80;64.50;;;;;;5035869;28;20449;-96
2023/03/13 23:37:21;;;;;;;3.40;2.80;;;20.70;64.30;;;;;;5036845;28;20434;-96
2023/03/13 23:39:49;;;;;;;3.00;2.40;;;20.80;64.50;;;;;;5035527;28;20926;-89
2023/03/13 23:42:16;;;;;;;3.40;2.40;;;20.70;64.40;;;;;;5036697;28;20525;-96
2023/03/13 23:44:42;;;;;;;2.80;2.60;;;20.70;64.20;;;;;;5036692;28;20448;-96
2023/03/13 23:47:09;;;;;;;2.60;2.40;;;20.70;64.30;;;;;;5036843;28;20466;-91
2023/03/13 23:49:37;;;;;;;3.27;2.60;;;20.70;64.30;;;;;;5037457;28;20446;-89
2023/03/13 23:52:04;;;;;;;3.00;2.50;;;20.70;64.20;;;;;;5037972;28;20561;-96
2023/03/13 23:54:31;;;;;;;3.27;2.30;;;20.70;64.30;;;;;;5039370;28;20549;-96
2023/03/13 23:56:59;;;;;;;3.53;2.90;;;20.70;64.20;;;;;;5041678;28;21025;-94
2023/03/13 23:59:25;;;;;;;2.37;2.17;;;20.80;64.40;;;;;;5041834;28;20473;-95
